createdAt,value
2022-10-02T00:01:44.291Z,2.22
2022-10-02T00:04:15.899Z,2.22
2022-10-02T00:06:47.846Z,4.63
2022-10-02T00:09:37.712Z,2.65
2022-10-02T00:12:08.655Z,5.65
2022-10-02T00:14:38.517Z,2.97
2022-10-02T00:17:06.915Z,3.05
2022-10-02T00:19:33.476Z,3.83
2022-10-02T00:22:15.239Z,2.88
2022-10-02T00:25:03.187Z,1.90
2022-10-02T00:27:52.720Z,1.00
2022-10-02T00:30:19.249Z,3.70
2022-10-02T00:33:01.445Z,3.90
2022-10-02T00:35:47.979Z,2.08
2022-10-02T00:38:26.304Z,3.30
2022-10-02T00:40:58.694Z,1.45
2022-10-02T00:44:09.625Z,2.45
2022-10-02T00:47:14.266Z,2.85
2022-10-02T00:50:08.567Z,3.95
2022-10-02T00:52:44.005Z,2.40
2022-10-02T00:55:25.471Z,2.07
2022-10-02T00:58:10.550Z,1.60
2022-10-02T01:00:37.723Z,1.88
2022-10-02T01:03:22.452Z,2.17
2022-10-02T01:05:49.756Z,1.60
2022-10-02T01:08:17.281Z,1.75
2022-10-02T01:10:44.247Z,1.55
2022-10-02T01:13:10.760Z,2.08
2022-10-02T01:15:44.389Z,3.60
2022-10-02T01:18:13.957Z,2.88
2022-10-02T01:20:44.959Z,3.88
2022-10-02T01:23:30.146Z,3.45
2022-10-02T01:25:58.262Z,5.80
2022-10-02T01:28:25.182Z,2.50
2022-10-02T01:30:57.316Z,2.55
2022-10-02T01:33:23.862Z,1.92
2022-10-02T01:35:51.209Z,1.83
2022-10-02T01:38:23.067Z,2.83
2022-10-02T01:40:49.491Z,2.88
2022-10-02T01:43:21.839Z,2.15
2022-10-02T01:45:54.357Z,2.78
2022-10-02T01:48:33.329Z,2.05
2022-10-02T01:51:07.515Z,3.67
2022-10-02T01:53:50.448Z,3.70
2022-10-02T01:56:35.052Z,1.48
2022-10-02T01:59:25.168Z,2.38
2022-10-02T02:02:13.840Z,2.85
2022-10-02T02:05:11.119Z,2.28
2022-10-02T02:07:52.820Z,2.45
2022-10-02T02:10:32.092Z,2.33
2022-10-02T02:13:11.097Z,4.13
2022-10-02T02:16:03.484Z,2.60
2022-10-02T02:18:35.113Z,2.05
2022-10-02T02:21:08.984Z,1.35
2022-10-02T02:23:39.031Z,2.28
2022-10-02T02:26:12.403Z,2.85
2022-10-02T02:28:47.570Z,1.58
2022-10-02T02:31:20.438Z,2.53
2022-10-02T02:33:52.846Z,3.13
2022-10-02T02:36:24.188Z,2.47
2022-10-02T02:38:58.441Z,2.80
2022-10-02T02:41:28.226Z,3.70
2022-10-02T02:44:22.024Z,1.55
2022-10-02T02:47:03.706Z,3.33
2022-10-02T02:49:44.474Z,2.47
2022-10-02T02:52:18.275Z,4.25
2022-10-02T02:54:50.402Z,4.38
2022-10-02T02:57:24.223Z,3.75
2022-10-02T02:59:52.502Z,3.63
2022-10-02T03:02:18.995Z,3.05
2022-10-02T03:04:45.499Z,5.07
2022-10-02T03:07:15.984Z,2.08
2022-10-02T03:09:55.117Z,7.00
2022-10-02T03:12:33.308Z,4.63
2022-10-02T03:15:11.839Z,2.53
2022-10-02T03:17:44.221Z,6.07
2022-10-02T03:20:24.205Z,2.30
2022-10-02T03:23:09.922Z,2.60
2022-10-02T03:25:43.027Z,1.88
2022-10-02T03:28:31.765Z,1.70
2022-10-02T03:31:05.569Z,1.60
2022-10-02T03:33:35.600Z,1.98
2022-10-02T03:36:02.336Z,2.40
2022-10-02T03:38:29.404Z,1.00
2022-10-02T03:40:58.274Z,3.42
2022-10-02T03:43:28.394Z,2.55
2022-10-02T03:45:54.908Z,2.47
2022-10-02T03:48:21.339Z,1.65
2022-10-02T03:50:47.907Z,2.38
2022-10-02T03:53:20.085Z,2.67
2022-10-02T03:55:51.751Z,2.25
2022-10-02T03:58:19.002Z,2.10
2022-10-02T04:01:13.022Z,2.97
2022-10-02T04:03:52.844Z,5.03
2022-10-02T04:06:25.272Z,2.72
2022-10-02T04:09:02.318Z,1.30
2022-10-02T04:11:40.961Z,2.50
2022-10-02T04:14:20.517Z,3.55
2022-10-02T04:16:57.364Z,1.85
2022-10-02T04:19:29.478Z,1.90
2022-10-02T04:22:07.947Z,2.40
2022-10-02T04:24:45.756Z,3.92
2022-10-02T04:27:26.281Z,1.85
2022-10-02T04:29:58.164Z,3.00
2022-10-02T04:32:27.155Z,3.97
2022-10-02T04:34:54.503Z,3.00
2022-10-02T04:37:48.142Z,1.42
2022-10-02T04:40:29.835Z,2.92
2022-10-02T04:43:02.079Z,2.38
2022-10-02T04:45:46.879Z,1.25
2022-10-02T04:48:46.353Z,1.08
2022-10-02T04:51:30.883Z,1.17
2022-10-02T04:54:17.558Z,2.60
2022-10-02T04:59:30.371Z,2.13
2022-10-02T05:02:08.191Z,2.67
2022-10-02T05:04:51.871Z,3.53
2022-10-02T05:07:46.065Z,1.30
2022-10-02T05:10:44.354Z,4.32
2022-10-02T05:13:38.106Z,2.97
2022-10-02T05:16:26.155Z,3.20
2022-10-02T05:19:04.923Z,3.55
2022-10-02T05:22:03.158Z,1.63
2022-10-02T05:25:02.248Z,4.63
2022-10-02T05:27:47.352Z,1.98
2022-10-02T05:30:15.991Z,2.58
2022-10-02T05:33:09.132Z,1.88
2022-10-02T05:35:53.124Z,1.77
2022-10-02T05:38:50.637Z,2.60
2022-10-02T05:42:15.602Z,2.78
2022-10-02T05:44:49.673Z,1.20
2022-10-02T05:47:26.361Z,2.80
2022-10-02T05:50:18.892Z,2.80
2022-10-02T05:52:51.131Z,2.47
2022-10-02T05:55:28.479Z,1.13
2022-10-02T05:58:27.817Z,2.22
2022-10-02T06:01:02.541Z,2.33
2022-10-02T06:03:49.042Z,1.50
2022-10-02T06:06:35.728Z,1.42
2022-10-02T06:09:19.552Z,1.48
2022-10-02T06:12:04.679Z,1.83
2022-10-02T06:14:36.764Z,1.90
2022-10-02T06:17:22.020Z,2.50
2022-10-02T06:20:04.088Z,2.30
2022-10-02T06:22:41.553Z,1.05
2022-10-02T06:25:20.230Z,1.48
2022-10-02T06:27:55.303Z,1.67
2022-10-02T06:30:22.100Z,2.22
2022-10-02T06:33:01.234Z,2.10
2022-10-02T06:35:38.579Z,0.80
2022-10-02T06:38:35.441Z,1.50
2022-10-02T06:41:20.428Z,1.20
2022-10-02T06:43:52.878Z,1.75
2022-10-02T06:46:40.109Z,2.10
2022-10-02T06:49:31.613Z,1.52
2022-10-02T06:52:12.120Z,1.38
2022-10-02T06:54:53.415Z,1.40
2022-10-02T06:57:30.437Z,3.22
2022-10-02T07:00:18.121Z,3.80
2022-10-02T07:03:19.848Z,1.95
2022-10-02T07:06:06.941Z,2.42
2022-10-02T07:09:01.313Z,1.35
2022-10-02T07:11:35.634Z,2.63
2022-10-02T07:14:16.104Z,1.10
2022-10-02T07:16:57.658Z,2.20
2022-10-02T07:19:30.700Z,0.85
2022-10-02T07:22:15.189Z,1.13
2022-10-02T07:25:05.329Z,1.83
2022-10-02T07:27:45.147Z,0.70
2022-10-02T07:30:15.088Z,0.70
2022-10-02T07:32:54.030Z,1.25
2022-10-02T07:35:31.300Z,0.90
2022-10-02T07:38:17.093Z,1.17
2022-10-02T07:41:00.744Z,5.10
2022-10-02T07:43:44.772Z,1.10
2022-10-02T07:46:22.671Z,0.90
2022-10-02T07:49:04.263Z,2.40
2022-10-02T07:51:51.451Z,1.17
2022-10-02T07:54:38.529Z,1.20
2022-10-02T07:57:13.290Z,1.05
2022-10-02T07:59:43.405Z,0.70
2022-10-02T08:02:27.784Z,0.77
2022-10-02T08:05:00.749Z,0.70
2022-10-02T08:07:29.388Z,0.43
2022-10-02T08:10:01.950Z,0.60
2022-10-02T08:12:39.817Z,0.50
2022-10-02T08:15:11.864Z,1.10
2022-10-02T08:17:45.370Z,0.95
2022-10-02T08:20:27.426Z,0.77
2022-10-02T08:23:06.991Z,0.70
2022-10-02T08:25:49.293Z,0.60
2022-10-02T08:28:25.415Z,0.63
2022-10-02T08:30:52.265Z,0.60
2022-10-02T08:33:20.570Z,1.27
2022-10-02T08:36:16.469Z,0.60
2022-10-02T08:38:51.395Z,0.60
2022-10-02T08:42:01.200Z,0.90
2022-10-02T08:45:02.310Z,1.17
2022-10-02T08:47:54.451Z,0.50
2022-10-02T08:50:37.877Z,0.50
2022-10-02T08:53:25.734Z,0.70
2022-10-02T08:56:11.654Z,0.40
2022-10-02T08:59:01.321Z,0.60
2022-10-02T09:01:35.112Z,0.50
2022-10-02T09:04:34.023Z,0.40
2022-10-02T09:07:17.590Z,0.50
2022-10-02T09:09:46.901Z,0.40
2022-10-02T09:12:25.727Z,0.90
2022-10-02T09:15:09.950Z,0.40
2022-10-02T09:17:48.704Z,0.45
2022-10-02T09:20:37.089Z,0.50
2022-10-02T09:23:57.369Z,0.30
2022-10-02T09:26:29.557Z,0.40
2022-10-02T09:29:06.331Z,0.45
2022-10-02T09:32:26.186Z,0.40
2022-10-02T09:35:20.225Z,0.65
2022-10-02T09:38:08.317Z,0.40
2022-10-02T09:40:53.168Z,0.25
2022-10-02T09:44:02.044Z,0.50
2022-10-02T09:46:48.065Z,0.30
2022-10-02T09:49:33.328Z,0.47
2022-10-02T09:52:21.422Z,0.40
2022-10-02T09:55:00.244Z,0.45
2022-10-02T09:57:44.675Z,0.50
2022-10-02T10:00:32.331Z,0.40
2022-10-02T10:03:37.043Z,0.30
2022-10-02T10:06:35.036Z,0.80
2022-10-02T10:09:40.381Z,0.65
2022-10-02T10:12:41.312Z,0.50
2022-10-02T10:15:44.734Z,0.70
2022-10-02T10:18:17.668Z,0.60
2022-10-02T10:20:54.287Z,0.50
2022-10-02T10:23:46.876Z,0.50
2022-10-02T10:26:43.997Z,0.57
2022-10-02T10:29:28.492Z,0.75
2022-10-02T10:32:22.867Z,0.60
2022-10-02T10:34:55.091Z,0.65
2022-10-02T10:37:52.382Z,3.15
2022-10-02T10:40:38.651Z,0.50
2022-10-02T10:43:36.467Z,0.40
2022-10-02T10:46:12.260Z,0.70
2022-10-02T10:48:49.177Z,0.60
2022-10-02T10:51:35.102Z,1.13
2022-10-02T10:54:40.628Z,0.88
2022-10-02T10:57:29.473Z,0.60
2022-10-02T11:00:20.031Z,0.50
2022-10-02T11:03:11.002Z,1.35
2022-10-02T11:06:11.445Z,0.40
2022-10-02T11:08:50.053Z,0.82
2022-10-02T11:11:31.927Z,0.88
2022-10-02T11:14:35.298Z,0.88
2022-10-02T11:17:23.355Z,0.80
2022-10-02T11:20:03.246Z,1.20
2022-10-02T11:22:38.785Z,1.08
2022-10-02T11:25:34.725Z,0.82
2022-10-02T11:28:34.083Z,1.30
2022-10-02T11:31:16.572Z,1.60
2022-10-02T11:34:01.819Z,0.70
2022-10-02T11:36:53.228Z,0.90
2022-10-02T11:39:52.118Z,0.80
2022-10-02T11:42:49.703Z,0.50
2022-10-02T11:45:55.506Z,0.70
2022-10-02T11:48:41.247Z,0.40
2022-10-02T11:51:17.347Z,0.50
2022-10-02T11:56:31.960Z,0.38
2022-10-02T11:59:39.793Z,0.55
2022-10-02T12:02:18.018Z,0.50
2022-10-02T12:05:33.757Z,1.48
2022-10-02T12:08:24.110Z,0.85
2022-10-02T12:11:07.501Z,0.50
2022-10-02T12:13:39.574Z,0.50
2022-10-02T12:16:14.019Z,0.43
2022-10-02T12:18:49.368Z,0.50
2022-10-02T12:22:08.895Z,0.50
2022-10-02T12:25:14.114Z,0.50
2022-10-02T12:28:10.352Z,0.40
2022-10-02T12:31:10.358Z,0.50
2022-10-02T12:33:59.808Z,0.50
2022-10-02T12:36:58.206Z,0.50
2022-10-02T12:39:40.044Z,0.55
2022-10-02T12:42:26.719Z,0.70
2022-10-02T12:45:09.260Z,0.88
2022-10-02T12:48:02.934Z,0.50
2022-10-02T12:50:54.969Z,0.68
2022-10-02T12:53:39.974Z,0.43
2022-10-02T12:56:35.219Z,0.63
2022-10-02T12:59:09.033Z,0.50
2022-10-02T13:01:54.310Z,0.43
2022-10-02T13:04:51.254Z,0.50
2022-10-02T13:10:19.231Z,0.40
2022-10-02T13:13:16.945Z,0.50
2022-10-02T13:15:59.626Z,0.40
2022-10-02T13:18:50.380Z,1.35
2022-10-02T13:21:22.481Z,0.50
2022-10-02T13:24:04.217Z,0.50
2022-10-02T13:26:35.852Z,0.50
2022-10-02T13:29:17.545Z,0.75
2022-10-02T13:31:49.725Z,0.68
2022-10-02T13:34:26.605Z,0.50
2022-10-02T13:37:21.488Z,0.50
2022-10-02T13:40:03.898Z,0.60
2022-10-02T13:42:48.767Z,2.90
2022-10-02T13:45:22.286Z,0.50
2022-10-02T13:47:54.723Z,1.58
2022-10-02T13:50:46.643Z,0.60
2022-10-02T13:53:39.183Z,0.80
2022-10-02T13:56:13.281Z,0.80
2022-10-02T13:59:02.165Z,0.50
2022-10-02T14:01:45.910Z,0.70
2022-10-02T14:04:31.331Z,0.55
2022-10-02T14:07:20.108Z,0.60
2022-10-02T14:10:13.126Z,0.70
2022-10-02T14:12:57.183Z,1.23
2022-10-02T14:15:55.249Z,1.27
2022-10-02T14:18:35.305Z,0.65
2022-10-02T14:21:20.522Z,0.52
2022-10-02T14:24:07.900Z,0.60
2022-10-02T14:26:56.152Z,0.70
2022-10-02T14:29:47.259Z,0.70
2022-10-02T14:32:40.415Z,0.73
2022-10-02T14:35:47.751Z,0.80
2022-10-02T14:38:44.201Z,1.38
2022-10-02T14:41:28.540Z,0.60
2022-10-02T14:44:07.298Z,0.70
2022-10-02T14:46:49.611Z,1.40
2022-10-02T14:49:43.729Z,1.35
2022-10-02T14:52:43.543Z,1.38
2022-10-02T14:55:32.621Z,1.13
2022-10-02T14:58:12.375Z,0.90
2022-10-02T15:00:51.512Z,0.93
2022-10-02T15:03:47.089Z,1.38
2022-10-02T15:06:22.052Z,1.05
2022-10-02T15:09:17.756Z,0.55
2022-10-02T15:12:00.064Z,1.00
2022-10-02T15:14:39.254Z,1.00
2022-10-02T15:17:42.205Z,0.80
2022-10-02T15:20:29.818Z,1.23
2022-10-02T15:23:10.436Z,2.00
2022-10-02T15:26:16.784Z,0.60
2022-10-02T15:29:09.076Z,0.70
2022-10-02T15:31:46.051Z,0.73
2022-10-02T15:34:27.404Z,0.60
2022-10-02T15:37:19.390Z,0.60
2022-10-02T15:40:16.852Z,1.60
2022-10-02T15:43:27.564Z,0.90
2022-10-02T15:46:06.252Z,1.55
2022-10-02T15:48:46.068Z,0.60
2022-10-02T15:51:38.458Z,1.63
2022-10-02T15:54:24.828Z,0.60
2022-10-02T15:57:22.172Z,0.90
2022-10-02T16:00:26.001Z,0.70
2022-10-02T16:03:03.083Z,0.57
2022-10-02T16:05:38.871Z,1.20
2022-10-02T16:08:39.829Z,0.80
2022-10-02T16:11:29.024Z,0.60
2022-10-02T16:14:15.209Z,0.60
2022-10-02T16:16:42.140Z,0.70
2022-10-02T16:19:30.350Z,0.70
2022-10-02T16:22:17.971Z,0.98
2022-10-02T16:25:32.162Z,0.60
2022-10-02T16:28:13.714Z,0.80
2022-10-02T16:31:03.199Z,1.05
2022-10-02T16:33:47.631Z,0.77
2022-10-02T16:36:49.575Z,1.88
2022-10-02T16:39:37.565Z,1.25
2022-10-02T16:42:16.297Z,1.83
2022-10-02T16:44:57.101Z,1.48
2022-10-02T16:48:06.366Z,1.08
2022-10-02T16:50:48.980Z,1.25
2022-10-02T16:53:25.955Z,1.60
2022-10-02T16:56:06.614Z,1.05
2022-10-02T16:58:44.111Z,1.73
2022-10-02T17:01:27.599Z,1.10
2022-10-02T17:03:54.464Z,0.73
2022-10-02T17:06:27.050Z,1.23
2022-10-02T17:09:09.559Z,1.92
2022-10-02T17:11:59.041Z,1.40
2022-10-02T17:14:40.884Z,2.72
2022-10-02T17:17:23.009Z,1.15
2022-10-02T17:20:03.696Z,1.92
2022-10-02T17:22:43.013Z,1.40
2022-10-02T17:25:27.188Z,1.23
2022-10-02T17:28:22.575Z,1.30
2022-10-02T17:31:01.390Z,2.53
2022-10-02T17:33:39.320Z,1.50
2022-10-02T17:36:18.708Z,1.00
2022-10-02T17:39:03.515Z,1.27
2022-10-02T17:41:40.143Z,1.92
2022-10-02T17:44:22.376Z,2.88
2022-10-02T17:47:13.727Z,2.78
2022-10-02T17:49:52.214Z,2.13
2022-10-02T17:53:03.551Z,1.00
2022-10-02T17:56:03.944Z,1.20
2022-10-02T17:58:40.961Z,0.85
2022-10-02T18:01:23.783Z,1.05
2022-10-02T18:04:18.779Z,1.02
2022-10-02T18:07:04.145Z,1.27
2022-10-02T18:09:45.467Z,0.40
2022-10-02T18:12:26.068Z,0.73
2022-10-02T18:15:23.614Z,0.52
2022-10-02T18:18:08.262Z,0.70
2022-10-02T18:21:13.846Z,0.73
2022-10-02T18:23:42.926Z,2.10
2022-10-02T18:26:31.370Z,0.55
2022-10-02T18:29:18.721Z,0.45
2022-10-02T18:32:15.453Z,0.82
2022-10-02T18:34:56.986Z,0.55
2022-10-02T18:37:50.971Z,0.55
2022-10-02T18:40:26.057Z,1.70
2022-10-02T18:43:03.046Z,1.25
2022-10-02T18:45:34.449Z,1.17
2022-10-02T18:48:38.221Z,1.40
2022-10-02T18:51:10.816Z,0.63
2022-10-02T18:54:11.740Z,0.82
2022-10-02T18:57:07.209Z,1.33
2022-10-02T18:59:55.207Z,0.70
2022-10-02T19:02:30.573Z,0.70
2022-10-02T19:05:12.072Z,0.63
2022-10-02T19:07:42.062Z,1.33
2022-10-02T19:10:32.614Z,0.73
2022-10-02T19:13:18.189Z,0.88
2022-10-02T19:15:46.821Z,1.23
2022-10-02T19:18:21.257Z,1.08
2022-10-02T19:20:58.502Z,0.80
2022-10-02T19:23:30.816Z,1.83
2022-10-02T19:26:04.792Z,2.55
2022-10-02T19:28:34.186Z,0.68
2022-10-02T19:31:07.143Z,2.03
2022-10-02T19:33:45.924Z,0.80
2022-10-02T19:36:19.951Z,1.73
2022-10-02T19:39:10.239Z,2.70
2022-10-02T19:41:42.864Z,1.95
2022-10-02T19:44:22.785Z,1.65
2022-10-02T19:46:52.905Z,0.70
2022-10-02T19:49:23.504Z,0.70
2022-10-02T19:51:54.919Z,0.85
2022-10-02T19:54:31.778Z,1.10
2022-10-02T19:57:14.793Z,0.85
2022-10-02T19:59:46.350Z,1.20
2022-10-02T20:02:26.998Z,1.25
2022-10-02T20:04:57.136Z,1.55
2022-10-02T20:07:26.902Z,1.65
2022-10-02T20:09:58.337Z,1.85
2022-10-02T20:12:31.537Z,1.20
2022-10-02T20:15:17.623Z,0.82
2022-10-02T20:17:44.307Z,1.20
2022-10-02T20:20:13.685Z,0.98
2022-10-02T20:22:54.353Z,1.35
2022-10-02T20:25:31.278Z,0.85
2022-10-02T20:28:29.292Z,2.35
2022-10-02T20:31:04.102Z,0.82
2022-10-02T20:33:33.604Z,0.60
2022-10-02T20:36:29.003Z,1.10
2022-10-02T20:39:03.587Z,0.47
2022-10-02T20:41:42.865Z,0.43
2022-10-02T20:44:12.747Z,0.50
2022-10-02T20:47:24.196Z,0.60
2022-10-02T20:50:08.877Z,0.50
2022-10-02T20:53:02.110Z,0.70
2022-10-02T20:55:53.348Z,0.90
2022-10-02T20:58:22.483Z,1.13
2022-10-02T21:01:03.656Z,0.70
2022-10-02T21:04:06.897Z,0.55
2022-10-02T21:07:07.180Z,0.80
2022-10-02T21:10:08.885Z,0.50
2022-10-02T21:13:16.461Z,0.65
2022-10-02T21:18:48.827Z,0.80
2022-10-02T21:21:43.395Z,0.88
2022-10-02T21:24:20.441Z,0.45
2022-10-02T21:26:47.147Z,0.40
2022-10-02T21:29:53.125Z,0.40
2022-10-02T21:32:57.005Z,0.43
2022-10-02T21:35:38.477Z,0.75
2022-10-02T21:38:17.495Z,1.27
2022-10-02T21:41:21.537Z,1.65
2022-10-02T21:44:10.157Z,0.52
2022-10-02T21:47:19.037Z,2.78
2022-10-02T21:50:10.666Z,0.77
2022-10-02T21:52:55.657Z,0.90
2022-10-02T21:55:56.136Z,0.43
2022-10-02T21:58:47.412Z,0.40
2022-10-02T22:01:51.811Z,0.40
2022-10-02T22:04:57.015Z,0.40
2022-10-02T22:07:35.976Z,0.50
2022-10-02T22:10:22.055Z,0.50
2022-10-02T22:13:18.416Z,0.50
2022-10-02T22:15:55.238Z,0.47
2022-10-02T22:18:27.632Z,0.60
2022-10-02T22:21:12.238Z,0.60
2022-10-02T22:23:54.851Z,1.05
2022-10-02T22:26:54.109Z,0.50
2022-10-02T22:29:39.463Z,0.40
2022-10-02T22:32:52.762Z,0.45
2022-10-02T22:35:53.270Z,1.10
2022-10-02T22:38:40.246Z,0.40
2022-10-02T22:41:26.146Z,0.43
2022-10-02T22:43:58.397Z,0.60
2022-10-02T22:46:43.987Z,0.57
2022-10-02T22:49:29.359Z,0.50
2022-10-02T22:52:20.585Z,0.40
2022-10-02T22:55:07.447Z,0.63
2022-10-02T22:57:46.366Z,0.70
2022-10-02T23:00:18.697Z,0.80
2022-10-02T23:03:12.102Z,0.77
2022-10-02T23:05:50.141Z,0.93
2022-10-02T23:08:33.958Z,0.70
2022-10-02T23:11:16.832Z,0.70
2022-10-02T23:13:58.381Z,0.70
2022-10-02T23:16:48.980Z,0.90
2022-10-02T23:19:25.583Z,1.42
2022-10-02T23:21:59.146Z,1.15
2022-10-02T23:24:32.397Z,0.70
2022-10-02T23:27:14.112Z,0.70
2022-10-02T23:29:54.011Z,0.77
2022-10-02T23:32:27.755Z,0.93
2022-10-02T23:35:14.503Z,0.73
2022-10-02T23:40:49.247Z,0.60
2022-10-02T23:43:36.779Z,0.73
2022-10-02T23:46:09.678Z,1.55
2022-10-02T23:48:38.481Z,0.95
2022-10-02T23:51:17.574Z,0.82
2022-10-02T23:54:08.505Z,0.60
2022-10-02T23:57:18.369Z,1.27
